Tiempo atmosférico en la estación meteorológica de Montehermoso, Cáceres (351 m.)



Fecha
DESCASC
Temp. máxima en grados centígrados (hora)
DESCASC
Temp. mínima en grados centígrados (hora)
DESCASC
Temp. media en grados centígrados
DESCASC
Racha de viento máxima en m/sg (hora)
DESCASC
Velocidad máxima media en intervalos de 10 minutos(hora)
DESCASC
Precipitaciones diarias en mm
DESCASC
Precipitaciones de 00:00 a 06:00 en mm
DESCASC
Precipitaciones de 06:00 a 12:00 en mm
DESCASC
Precipitaciones de 12:00 a 18:00 en mm
DESCASC
Precipitaciones de 18:00 a 24:00 en mm
DESCASC
02-04-2020 18.8 (17:50) 3.9 (06:50) 11.3 8.61 (13:30) 4.72 (18:10) 0 0 0 0 0
01-04-2020 14.8 (19:00) 2.6 (04:40) 8.7 6.39 (12:50) 3.33 (19:20) 0 0 0 0 0
31-03-2020 11.3 (17:10) 3.5 (00:00) 7.4 9.44 (13:10) 5 (12:50) 10.2 0.6 7.6 1.6 0.4
30-03-2020 13.3 (00:00) 4.1 (00:00) 8.7 15 (14:40) 7.22 (13:00) 0.6 0 0 0 0.6
29-03-2020 19.8 (15:50) 3.3 (00:00) 11.5 5.56 (18:50) 3.06 (18:50) 0 0 0 0 0
28-03-2020 17.1 (16:30) 3.2 (00:00) 10.2 9.44 (14:30) 6.11 (14:30) 0 0 0 0 0
27-03-2020 14.5 (17:20) 6 (00:00) 10.3 12.78 (14:00) 7.5 (14:10) 0 0 0 0 0
26-03-2020 20.2 (16:50) 10.7 (00:00) 15.5 8.89 (15:10) 5 (15:00) 0 0 0 0 0
25-03-2020 20.1 (17:10) 6.7 (00:00) 13.4 8.33 (18:40) 5 (18:00) 0 0 0 0 0
24-03-2020 19.3 (15:50) 9.2 (00:00) 14.2 13.06 (14:00) 7.5 (14:00) 0 0 0 0 0
23-03-2020 16.8 (13:30) 6.1 (00:00) 11.4 8.06 (14:00) 4.72 (13:50) 1.4 0 0 1.4 0
22-03-2020 16.8 (17:40) 4.2 (07:20) 10.5 8.33 (18:40) 3.89 (18:40) 0.8 0 0 0 0.8
21-03-2020 13.6 (18:10) 7.6 (00:00) 10.6 12.5 (00:40) 6.67 (00:40) 23 11.6 10.8 0.6 0
20-03-2020 13.3 (01:10) 10 (00:00) 11.7 10.83 (23:59) 5.56 (23:59) 28.4 0 9.8 10.4 8.2
19-03-2020 17.9 (15:50) 10.1 (00:00) 14 8.61 (02:30) 4.72 (05:00) 0 0 0 0 0
18-03-2020 19.3 (13:10) 10.3 (00:00) 14.8 10 (12:40) 5.83 (14:20) 0 0 0 0 0
17-03-2020 17.6 (17:10) 2.1 (00:00) 9.9 11.11 (15:40) 6.39 (15:50) 0.2 0.2 0 0 0
16-03-2020 10.1 (15:30) 5.3 (00:00) 7.7 15.28 (12:30) 8.61 (12:10) 9 0 0 2 7
15-03-2020 21 (15:10) 6.2 (00:00) 13.6 11.94 (22:30) 7.5 (16:10) 0 0 0 0 0
14-03-2020 24.4 (16:50) 12.5 (00:00) 18.4 7.78 (02:20) 4.17 (02:30) 0 0 0 0 0
13-03-2020 23 (16:20) 8.7 (07:10) 15.8 6.11 (22:20) 4.17 (22:20) 0 0 0 0 0
12-03-2020 25.2 (16:00) 9.7 (00:00) 17.5 5.56 (12:30) 3.33 (12:20) 0 0 0 0 0
11-03-2020 25 (15:30) 7.4 (00:00) 16.2 3.61 (15:00) 1.67 (15:00) 0 0 0 0 0
10-03-2020 24 (17:10) 6.4 (00:00) 15.2 4.17 (17:10) 2.5 (09:00) 0 0 0 0 0
09-03-2020 20.7 (16:40) 4.3 (00:00) 12.5 6.67 (18:40) 3.89 (18:40) 0 0 0 0 0
08-03-2020 16.5 (18:10) 3 (00:00) 9.8 6.11 (19:20) 3.61 (19:20) 0 0 0 0 0
07-03-2020 18.9 (16:40) 4.2 (00:00) 11.5 8.61 (00:40) 5 (00:40) 0 0 0 0 0
06-03-2020 14.8 (17:00) 6.7 (00:00) 10.8 13.33 (17:30) 7.78 (16:50) 0 0 0 0 0
05-03-2020 16.8 (16:30) 8.7 (00:00) 12.7 12.22 (17:20) 6.67 (17:20) 2 0 2 0 0

Gráficas

Temp. máximas Temp. mínimas Temp. medias Precipitaciones Rachas de viento máximas Velocidades máximas media en intervalos de 10 minutos

Datos horarios

Fecha y hora oficial Temperatura (ºC) Velocidad del viento (km/h) Dirección del viento Racha (km/h) Dirección de racha Precipitación (mm) Presión (hPa) Tendencia (hPa) Humedad (%)
2020-04-03 23:00:00 11.4 2 Norte 5 Noroeste 0 -- -- 78
2020-04-03 22:00:00 13 3 Noroeste 5 Oeste 0 -- -- 70
2020-04-03 21:00:00 16.4 5 Oeste 6 Oeste 0 -- -- 56
2020-04-03 20:00:00 19.8 4 Sudoeste 8 Sudoeste 0 -- -- 41
2020-04-03 19:00:00 20.8 4 Sudoeste 13 Sur 0 -- -- 36
2020-04-03 18:00:00 20.5 9 Sudeste 19 Sur 0 -- -- 35
2020-04-03 17:00:00 20.3 7 Sur 20 Sudeste 0 -- -- 36
2020-04-03 16:00:00 19.6 8 Sudeste 18 Este 0 -- -- 38
2020-04-03 15:00:00 19 10 Sudeste 19 Sudeste 0 -- -- 43
2020-04-03 14:00:00 18 7 Sudeste 30 Este 0 -- -- 47
2020-04-03 13:00:00 16.7 10 Sur 16 Sudeste 0 -- -- 50
2020-04-03 12:00:00 15.6 7 Sudeste 15 Sudeste 0 -- -- 53
2020-04-03 11:00:00 13.7 7 Nordeste 19 Nordeste 0 -- -- 59
2020-04-03 10:00:00 10.4 7 Nordeste 15 Nordeste 0 -- -- 71
2020-04-03 09:00:00 7.1 4 Sudeste 9 Nordeste 0 -- -- 82
2020-04-03 08:00:00 7.1 5 Sudeste 13 Norte 0 -- -- 81
2020-04-03 07:00:00 6.1 3 Norte 8 Norte 0 -- -- 87
2020-04-03 06:00:00 7.1 4 Norte 8 Nordeste 0 -- -- 84
2020-04-03 05:00:00 7.6 4 Este 11 Norte 0 -- -- 82
2020-04-03 04:00:00 7.7 5 Noroeste 10 Norte 0 -- -- 82
2020-04-03 03:00:00 8.5 3 Norte 10 Norte 0 -- -- 80
2020-04-03 02:00:00 10.2 7 Norte 12 Norte 0 -- -- 72
2020-04-03 01:00:00 10.6 7 Norte 20 Norte 0 -- -- 70
2020-04-03 00:00:00 11.6 6 Norte 21 Norte 0 -- -- 68
2020-04-02 23:00:00 12.6 10 Norte 26 Norte 0 -- -- 65
2020-04-02 22:00:00 13.6 13 Norte 26 Norte 0 -- -- 62
2020-04-02 21:00:00 14.6 11 Norte 30 Norte 0 -- -- 60
2020-04-02 20:00:00 16.4 10 Nordeste 24 Nordeste 0 -- -- 55
2020-04-02 19:00:00 18.5 13 Nordeste 31 Norte 0 -- -- 47
2020-04-02 18:00:00 18.6 14 Nordeste 28 Nordeste 0 -- -- 47
2020-04-02 17:00:00 18.4 12 Norte 26 Nordeste 0 -- -- 51
2020-04-02 16:00:00 17.4 12 Nordeste 24 Nordeste 0 -- -- 54
2020-04-02 15:00:00 17.3 12 Norte 30 Norte 0 -- -- 54
2020-04-02 14:00:00 16.2 10 Nordeste 31 Nordeste 0 -- -- 58
2020-04-02 13:00:00 15.8 13 Norte 23 Norte 0 -- -- 58
2020-04-02 12:00:00 14.4 12 Nordeste 22 Norte 0 -- -- 62
2020-04-02 11:00:00 12.1 13 Nordeste 27 Nordeste 0 -- -- 68
2020-04-02 10:00:00 9.4 9 Nordeste 17 Norte 0 -- -- 79
2020-04-02 09:00:00 6 4 Nordeste 17 Norte 0 -- -- 88
2020-04-02 08:00:00 4.7 6 Norte 12 Norte 0 -- -- 92
2020-04-02 07:00:00 4.1 3 Norte 6 Norte 0 -- -- 94
2020-04-02 06:00:00 4.6 0 Calma 4 Sudeste 0 -- -- 92
2020-04-02 05:00:00 6.3 2 Sur 12 Sur 0 -- -- 88
2020-04-02 04:00:00 7.4 0 Calma 10 Norte 0 -- -- 84
2020-04-02 03:00:00 8.3 3 Norte 11 Norte 0 -- -- 80
2020-04-02 02:00:00 8.3 5 Nordeste 13 Nordeste 0 -- -- 80
2020-04-02 01:00:00 8.4 3 Nordeste 5 Este 0 -- -- 80
2020-04-02 00:00:00 9 2 Nordeste 9 Nordeste 0 -- -- 80
2020-04-01 23:00:00 9.2 0 Calma 9 Sudoeste 0 -- -- 79
2020-04-01 22:00:00 9.4 3 Oeste 9 Sur 0 -- -- 75
2020-04-01 21:00:00 11.5 4 Sudoeste 13 Sur 0 -- -- 69
2020-04-01 20:00:00 14.2 8 Sudeste 20 Sudeste 0 -- -- 57
2020-04-01 19:00:00 14.8 8 Sur 17 Sur 0 -- -- 51
2020-04-01 18:00:00 14.1 6 Sur 20 Sudeste 0 -- -- 52
2020-04-01 17:00:00 13.3 7 Sur 20 Sur 0 -- -- 56
2020-04-01 16:00:00 12.9 10 Sudeste 18 Sur 0 -- -- 60
2020-04-01 15:00:00 12.8 7 Sudeste 17 Sur 0 -- -- 56
2020-04-01 14:00:00 11.4 7 Sur 20 Sudeste 0 -- -- 61
2020-04-01 13:00:00 11.3 8 Sur 23 Sudoeste 0 -- -- 66
2020-04-01 12:00:00 10.3 10 Sudeste 19 Sudeste 0 -- -- 70
2020-04-01 11:00:00 7.8 3 Sudeste 6 Sudeste 0 -- -- 94
2020-04-01 10:00:00 6.3 4 Este 7 Este 0 -- -- 99
2020-04-01 09:00:00 3.1 0 Calma 5 Sudeste 0 -- -- 98
2020-04-01 08:00:00 3.3 2 Noroeste 6 Norte 0 -- -- 98
2020-04-01 07:00:00 3.4 3 Norte 8 Norte 0 -- -- 98
2020-04-01 06:00:00 2.7 3 Noroeste 8 Norte 0 -- -- 97
2020-04-01 05:00:00 3.2 4 Nordeste 7 Norte 0 -- -- 97
2020-04-01 04:00:00 3.6 2 Norte 4 Sudoeste 0 -- -- 95
2020-04-01 03:00:00 5.4 2 Sudoeste 10 Sudoeste 0 -- -- 94
2020-04-01 02:00:00 6.3 5 Sudoeste 12 Sudoeste 0 -- -- 93
2020-04-01 01:00:00 7 6 Sudoeste 20 Oeste 0 -- -- 91
2020-04-01 00:00:00 7.8 12 Oeste 25 Oeste 0 -- -- 93
2020-03-31 23:00:00 10.1 12 Sur 22 Sur 0 -- -- 90
2020-03-31 22:00:00 10.3 11 Sur 33 Sudeste 0 -- -- 89
2020-03-31 21:00:00 10 7 Sur 27 Sudeste 0.2 -- -- 91
2020-03-31 20:00:00 10.4 9 Sudeste 19 Sudeste 0 -- -- 90
2020-03-31 19:00:00 10.4 11 Sudeste 22 Sudeste 0.2 -- -- 91
2020-03-31 18:00:00 11 13 Sudeste 24 Sudeste 0 -- -- 84
2020-03-31 17:00:00 11 14 Sudeste 27 Este 0 -- -- 83
2020-03-31 16:00:00 9.9 12 Sudeste 31 Este 0 -- -- 87
2020-03-31 15:00:00 9 18 Sudeste 32 Sudeste 0 -- -- 89
2020-03-31 14:00:00 8.1 15 Sudeste 34 Sudeste 0.8 -- -- 93
2020-03-31 13:00:00 7.5 17 Sudeste 33 Este 0.8 -- -- 94
2020-03-31 12:00:00 6.5 13 Sudeste 24 Este 1.2 -- -- 95
2020-03-31 11:00:00 5.4 5 Nordeste 13 Nordeste 1.2 -- -- 93
2020-03-31 10:00:00 4.4 4 Nordeste 13 Nordeste 1.4 -- -- 94
2020-03-31 09:00:00 3.9 6 Nordeste 12 Nordeste 0.6 -- -- 93
2020-03-31 08:00:00 3.5 4 Nordeste 12 Este 2.2 -- -- 92
2020-03-31 07:00:00 4 3 Este 10 Este 1 -- -- 91
2020-03-31 06:00:00 4.2 5 Este 17 Este 0.2 -- -- 92
2020-03-31 05:00:00 4.1 9 Este 18 Este 0 -- -- 92
2020-03-31 04:00:00 4.2 5 Sudeste 16 Este 0.2 -- -- 94
2020-03-31 03:00:00 4.3 7 Este 20 Este 0 -- -- 93
2020-03-31 02:00:00 4.6 8 Este 13 Este 0.2 -- -- 90
2020-03-31 01:00:00 4.6 4 Este 14 Este 0 -- -- 91
2020-03-31 00:00:00 4.4 8 Este 26 Nordeste 0 -- -- 87
2020-03-30 23:00:00 4.2 13 Nordeste 29 Nordeste 0.4 -- -- 88
2020-03-30 22:00:00 4.4 15 Nordeste 31 Nordeste 0 -- -- 85
2020-03-30 21:00:00 5 16 Nordeste 37 Nordeste 0 -- -- 78
2020-03-30 20:00:00 6.1 15 Nordeste 39 Nordeste 0 -- -- 68
2020-03-30 19:00:00 5.9 19 Nordeste 42 Nordeste 0.2 -- -- 71
2020-03-30 18:00:00 6.2 19 Nordeste 37 Nordeste 0 -- -- 73
2020-03-30 17:00:00 7.8 17 Nordeste 40 Nordeste 0 -- -- 62
2020-03-30 16:00:00 8.9 20 Nordeste 41 Nordeste 0 -- -- 55
2020-03-30 15:00:00 8.7 19 Nordeste 54 Norte 0 -- -- 58
2020-03-30 14:00:00 9 22 Nordeste 49 Nordeste 0 -- -- 60
2020-03-30 13:00:00 8.6 26 Nordeste 53 Norte 0 -- -- 62
2020-03-30 12:00:00 9.2 23 Nordeste 46 Nordeste 0 -- -- 61
2020-03-30 11:00:00 9.8 24 Nordeste 44 Nordeste 0 -- -- 59
2020-03-30 10:00:00 8.8 20 Nordeste 42 Nordeste 0 -- -- 60
2020-03-30 09:00:00 8.7 21 Norte 43 Nordeste 0 -- -- 62
2020-03-30 08:00:00 8.8 18 Norte 45 Nordeste 0 -- -- 67
2020-03-30 07:00:00 9.3 17 Norte 36 Norte 0 -- -- 66
2020-03-30 06:00:00 10 16 Norte 33 Norte 0 -- -- 66
2020-03-30 05:00:00 10.7 12 Nordeste 26 Norte 0 -- -- 64
2020-03-30 04:00:00 10.3 7 Nordeste 17 Norte 0 -- -- 71
2020-03-30 03:00:00 10 2 Noroeste 10 Oeste 0 -- -- 78
2020-03-30 02:00:00 10.5 3 Noroeste 5 Oeste 0 -- -- 81
2020-03-30 01:00:00 11.2 0 Calma 5 Noroeste 0 -- -- 79
2020-03-30 00:00:00 13.3 6 Noroeste 15 Noroeste 0 -- -- 65
2020-03-29 23:00:00 13.8 8 Noroeste 14 Oeste 0 -- -- 63
2020-03-29 22:00:00 13.1 5 Oeste 6 Oeste 0 -- -- 63
2020-03-29 21:00:00 14.6 5 Oeste 10 Oeste 0 -- -- 59
2020-03-29 20:00:00 17.9 6 Oeste 18 Sudoeste 0 -- -- 44
2020-03-29 19:00:00 18.9 9 Oeste 20 Oeste 0 -- -- 40
2020-03-29 18:00:00 19.1 6 Sudoeste 19 Oeste 0 -- -- 41
2020-03-29 17:00:00 19.6 4 Sudoeste 17 Oeste 0 -- -- 38
2020-03-29 16:00:00 19.8 8 Sur 18 Sudeste 0 -- -- 38
2020-03-29 15:00:00 19.3 8 Sudeste 18 Sudeste 0 -- -- 37
2020-03-29 14:00:00 18.1 5 Sudoeste 15 Sudeste 0 -- -- 43
2020-03-29 13:00:00 16.7 5 Sur 11 Sur 0 -- -- 49
2020-03-29 12:00:00 14.5 5 Sur 8 Sudeste 0 -- -- 62
2020-03-29 11:00:00 12.2 0 Calma 6 Este 0 -- -- 67
2020-03-29 10:00:00 7.5 0 Calma 3 Noroeste 0 -- -- 77
2020-03-29 09:00:00 4.2 0 Calma 3 Oeste 0 -- -- 92
2020-03-29 08:00:00 3.7 0 Calma 3 Noroeste 0 -- -- 90
2020-03-29 07:00:00 5.5 2 Sudeste 8 Sudeste 0 -- -- 84
2020-03-29 06:00:00 5.9 4 Norte 9 Norte 0 -- -- 82
2020-03-29 05:00:00 5.7 3 Noroeste 7 Nordeste 0 -- -- 87
2020-03-29 03:00:00 6.5 4 Noroeste 6 Noroeste 0 -- -- 84
2020-03-29 01:00:00 7.1 5 Noroeste 7 Oeste 0 -- -- 84
2020-03-29 00:00:00 8 4 Oeste 6 Oeste 0 -- -- 81
2020-03-28 23:00:00 8.6 4 Noroeste 5 Oeste 0 -- -- 80
2020-03-28 22:00:00 9.9 3 Noroeste 6 Oeste 0 -- -- 79
2020-03-28 21:00:00 11.5 4 Noroeste 5 Noroeste 0 -- -- 73
2020-03-28 20:00:00 13.6 2 Noroeste 8 Sur 0 -- -- 64
2020-03-28 19:00:00 16.3 5 Sur 13 Sudeste 0 -- -- 50
2020-03-28 18:00:00 16.7 10 Sudeste 17 Sur 0 -- -- 46
2020-03-28 17:00:00 16.3 12 Sudeste 22 Sudeste 0 -- -- 43
2020-03-28 16:00:00 16.5 15 Sudeste 31 Sudeste 0 -- -- 43
2020-03-28 15:00:00 16.8 17 Sudeste 34 Sudeste 0 -- -- 43
2020-03-28 14:00:00 16.5 16 Sudeste 30 Este 0 -- -- 47
2020-03-28 13:00:00 14.8 14 Sudeste 28 Sudeste 0 -- -- 53
2020-03-28 12:00:00 14 12 Sudeste 26 Este 0 -- -- 54
2020-03-28 11:00:00 12.3 11 Este 24 Sudeste 0 -- -- 58
2020-03-28 10:00:00 10.7 6 Este 12 Nordeste 0 -- -- 63
2020-03-28 09:00:00 7.1 3 Nordeste 8 Nordeste 0 -- -- 78
2020-03-28 08:00:00 4.8 4 Nordeste 8 Nordeste 0 -- -- 88
2020-03-28 07:00:00 3.5 3 Sudeste 8 Sudeste 0 -- -- 89
2020-03-28 06:00:00 3.8 3 Noroeste 5 Oeste 0 -- -- 87
2020-03-28 05:00:00 3.7 4 Oeste 8 Oeste 0 -- -- 87
2020-03-28 04:00:00 4 6 Oeste 8 Oeste 0 -- -- 87
2020-03-28 03:00:00 3.9 3 Noroeste 5 Oeste 0 -- -- 89
2020-03-28 02:00:00 5.4 3 Este 10 Sudeste 0 -- -- 79
2020-03-28 01:00:00 7.5 8 Sudeste 23 Sudeste 0 -- -- 70
2020-03-28 00:00:00 6.6 3 Este 13 Este 0 -- -- 70
2020-03-27 23:00:00 7.6 6 Este 17 Este 0 -- -- 67
2020-03-27 22:00:00 7.8 5 Este 10 Sudeste 0 -- -- 69
2020-03-27 21:00:00 8.2 2 Sudeste 10 Sudeste 0 -- -- 71
2020-03-27 20:00:00 10.4 0 Calma 20 Este 0 -- -- 62
2020-03-27 19:00:00 12.4 10 Sudeste 28 Sudeste 0 -- -- 55
2020-03-27 18:00:00 13.8 17 Sudeste 37 Sudeste 0 -- -- 49
2020-03-27 17:00:00 14.4 17 Sudeste 40 Sudeste 0 -- -- 52
2020-03-27 16:00:00 14.3 24 Sudeste 42 Este 0 -- -- 50
2020-03-27 15:00:00 14 25 Sudeste 43 Sudeste 0 -- -- 52
2020-03-27 14:00:00 13.8 23 Sudeste 46 Sur 0 -- -- 57
2020-03-27 13:00:00 13.1 18 Sudeste 36 Este 0 -- -- 56
2020-03-27 12:00:00 13.3 9 Este 30 Este 0 -- -- 54
2020-03-27 11:00:00 12.2 10 Este 26 Este 0 -- -- 54
2020-03-27 10:00:00 10 6 Nordeste 22 Norte 0 -- -- 55
2020-03-27 09:00:00 7.2 12 Norte 25 Norte 0 -- -- 62
2020-03-27 08:00:00 6.8 12 Nordeste 30 Nordeste 0 -- -- 62
2020-03-27 07:00:00 6.7 16 Nordeste 34 Norte 0 -- -- 61
2020-03-27 06:00:00 6.3 8 Este 19 Nordeste 0 -- -- 65
2020-03-27 05:00:00 6.6 4 Este 23 Nordeste 0 -- -- 70
2020-03-27 04:00:00 7.6 11 Nordeste 25 Nordeste 0 -- -- 67
2020-03-27 03:00:00 8.1 5 Nordeste 12 Nordeste 0 -- -- 82
2020-03-27 02:00:00 7.2 2 Noroeste 5 Norte 0 -- -- 88
2020-03-27 01:00:00 8.4 0 Calma 9 Sudeste 0 -- -- 82
2020-03-27 00:00:00 10.7 0 Calma 22 Norte 0 -- -- 73
2020-03-26 23:00:00 13.3 15 Norte 27 Norte 0 -- -- 62
2020-03-26 22:00:00 13.7 18 Noroeste 25 Norte 0 -- -- 60
2020-03-26 21:00:00 13.1 6 Norte 12 Noroeste 0 -- -- 44
2020-03-26 20:00:00 14.9 7 Norte 13 Norte 0 -- -- 42
2020-03-26 19:00:00 19 7 Norte 20 Norte 0 -- -- 33
2020-03-26 18:00:00 20.2 11 Norte 26 Noroeste 0 -- -- 27
2020-03-26 17:00:00 20 15 Noroeste 31 Noroeste 0 -- -- 28
2020-03-26 16:00:00 19.7 17 Norte 32 Noroeste 0 -- -- 33
2020-03-26 15:00:00 19.1 18 Noroeste 30 Norte 0 -- -- 35
2020-03-26 14:00:00 18.6 15 Noroeste 28 Norte 0 -- -- 40
2020-03-26 13:00:00 17.7 12 Noroeste 27 Oeste 0 -- -- 44
2020-03-26 12:00:00 16 14 Oeste 22 Noroeste 0 -- -- 54
2020-03-26 11:00:00 15.2 13 Noroeste 21 Noroeste 0 -- -- 57
2020-03-26 10:00:00 14.7 10 Norte 22 Noroeste 0 -- -- 56
2020-03-26 09:00:00 12.5 15 Noroeste 22 Noroeste 0 -- -- 66
2020-03-26 08:00:00 11 13 Noroeste 23 Noroeste 0 -- -- 71
2020-03-26 07:00:00 10.9 15 Noroeste 22 Noroeste 0 -- -- 72
2020-03-26 06:00:00 11.3 13 Noroeste 22 Noroeste 0 -- -- 71
2020-03-26 05:00:00 11.6 16 Noroeste 26 Norte 0 -- -- 72
2020-03-26 04:00:00 11.4 13 Noroeste 21 Oeste 0 -- -- 73
2020-03-26 03:00:00 11.8 6 Oeste 16 Noroeste 0 -- -- 72
2020-03-26 02:00:00 13.2 12 Noroeste 22 Noroeste 0 -- -- 66
2020-03-26 01:00:00 14 12 Noroeste 25 Noroeste 0 -- -- 63
2020-03-26 00:00:00 15 10 Noroeste 27 Noroeste 0 -- -- 61
2020-03-25 23:00:00 13.3 8 Norte 14 Norte 0 -- -- 68
2020-03-25 22:00:00 14.4 12 Norte 25 Noroeste 0 -- -- 69
2020-03-25 21:00:00 15.2 15 Oeste 24 Oeste 0 -- -- 68
2020-03-25 20:00:00 15.8 13 Oeste 24 Oeste 0 -- -- 65
2020-03-25 19:00:00 17.6 14 Oeste 30 Sudoeste 0 -- -- 60
2020-03-25 18:00:00 19.8 18 Oeste 28 Oeste 0 -- -- 52
2020-03-25 17:00:00 20 14 Oeste 30 Oeste 0 -- -- 55
2020-03-25 16:00:00 19.3 13 Oeste 26 Sudoeste 0 -- -- 55
2020-03-25 15:00:00 19.5 10 Sudoeste 23 Sudoeste 0 -- -- 56
2020-03-25 14:00:00 18 8 Sudoeste 19 Sudoeste 0 -- -- 59
2020-03-25 13:00:00 16.6 9 Oeste 20 Sur 0 -- -- 58
2020-03-25 12:00:00 15.6 7 Sudoeste 16 Sudoeste 0 -- -- 61
2020-03-25 11:00:00 14.2 4 Sudoeste 13 Sudeste 0 -- -- 67
2020-03-25 10:00:00 13 6 Sudeste 9 Sudeste 0 -- -- 70
2020-03-25 09:00:00 10.2 3 Sudeste 5 Sudeste 0 -- -- 84
2020-03-25 08:00:00 6.9 3 Noroeste 6 Oeste 0 -- -- 93
2020-03-25 07:00:00 7 4 Noroeste 5 Oeste 0 -- -- 92
2020-03-25 06:00:00 7.5 3 Noroeste 6 Oeste 0 -- -- 92
2020-03-25 05:00:00 8.5 3 Noroeste 6 Oeste 0 -- -- 88
2020-03-25 04:00:00 8.6 3 Noroeste 8 Sudoeste 0 -- -- 88
2020-03-25 03:00:00 10.1 5 Sudoeste 11 Sur 0 -- -- 81
2020-03-25 02:00:00 10.9 2 Sudeste 17 Sudeste 0 -- -- 78
2020-03-25 01:00:00 10.5 7 Sudeste 15 Sudeste 0 -- -- 80
2020-03-25 00:00:00 9.6 2 Nordeste 4 Sudeste 0 -- -- 86
2020-03-24 23:00:00 10.4 0 Calma 8 Este 0 -- -- 82
2020-03-24 22:00:00 12.8 4 Este 10 Este 0 -- -- 69
2020-03-24 21:00:00 14.2 6 Sudeste 17 Sudeste 0 -- -- 64
2020-03-24 20:00:00 15 9 Sudeste 23 Este 0 -- -- 63
2020-03-24 19:00:00 16.3 14 Sudeste 30 Sudeste 0 -- -- 59
2020-03-24 18:00:00 17 14 Sudeste 29 Sudeste 0 -- -- 57
2020-03-24 17:00:00 19 18 Sudeste 34 Sudeste 0 -- -- 53
2020-03-24 16:00:00 18.6 16 Sudeste 36 Sudeste 0 -- -- 52
2020-03-24 15:00:00 18.4 20 Sudeste 40 Sudeste 0 -- -- 53
2020-03-24 14:00:00 16.6 27 Sudeste 47 Sudeste 0 -- -- 57
2020-03-24 13:00:00 18.2 22 Sudeste 36 Sudeste 0 -- -- 55
2020-03-24 12:00:00 15.6 15 Este 31 Sudeste 0 -- -- 59
2020-03-24 11:00:00 16.3 10 Este 22 Este 0 -- -- 62
2020-03-24 10:00:00 14.1 6 Nordeste 18 Nordeste 0 -- -- 69
2020-03-24 09:00:00 11 6 Norte 13 Norte 0 -- -- 77
2020-03-24 08:00:00 10 3 Nordeste 14 Nordeste 0 -- -- 79
2020-03-24 07:00:00 10.6 5 Nordeste 16 Nordeste 0 -- -- 73
2020-03-24 06:00:00 11.7 8 Nordeste 23 Este 0 -- -- 71
2020-03-24 05:00:00 12.1 12 Este 29 Nordeste 0 -- -- 70
2020-03-24 04:00:00 11.5 9 Este 27 Este 0 -- -- 75
2020-03-24 03:00:00 10.7 4 Nordeste 11 Nordeste 0 -- -- 79
2020-03-24 02:00:00 10.6 4 Nordeste 18 Este 0 -- -- 79
2020-03-24 01:00:00 9.2 4 Norte 11 Este 0 -- -- 86
2020-03-24 00:00:00 10.1 4 Este 9 Nordeste 0 -- -- 78
2020-03-23 23:00:00 10.2 3 Norte 15 Nordeste 0 -- -- 79
2020-03-23 22:00:00 10.9 6 Este 19 Nordeste 0 -- -- 77
2020-03-23 21:00:00 10.4 6 Nordeste 9 Norte 0 -- -- 88
2020-03-23 20:00:00 12.2 3 Noroeste 4 Nordeste 0 -- -- 83
2020-03-23 19:00:00 15.2 5 Norte 8 Noroeste 0 -- -- 64
2020-03-23 18:00:00 15.4 8 Noroeste 12 Noroeste 0 -- -- 64
2020-03-23 17:00:00 13.1 3 Oeste 16 Sudeste 1.4 -- -- 81
2020-03-23 16:00:00 13.5 9 Sudeste 26 Sudeste 0 -- -- 81
2020-03-23 15:00:00 14.8 8 Sudeste 23 Este 0 -- -- 68
2020-03-23 14:00:00 15.2 17 Sudeste 29 Este 0 -- -- 67
2020-03-23 13:00:00 16.3 8 Sudeste 23 Sudeste 0 -- -- 63
2020-03-23 12:00:00 14.9 9 Este 25 Sudeste 0 -- -- 67
2020-03-23 11:00:00 14.1 10 Sudeste 19 Sudeste 0 -- -- 73
2020-03-23 10:00:00 12.5 5 Este 11 Sudeste 0 -- -- 80
2020-03-23 09:00:00 9.9 5 Norte 9 Norte 0 -- -- 92
2020-03-23 08:00:00 6.8 4 Oeste 6 Noroeste 0 -- -- 97
2020-03-23 07:00:00 6.1 3 Noroeste 5 Oeste 0 -- -- 97
2020-03-23 06:00:00 6.5 2 Norte 5 Este 0 -- -- 97
2020-03-23 05:00:00 6.8 3 Nordeste 5 Nordeste 0 -- -- 96
2020-03-23 04:00:00 7.9 3 Nordeste 10 Sur 0 -- -- 97
2020-03-23 03:00:00 7.8 0 Calma 5 Nordeste 0 -- -- 96
2020-03-23 02:00:00 8.5 0 Calma 7 Este 0 -- -- 94
2020-03-23 01:00:00 9.2 0 Calma 4 Noroeste 0 -- -- 94
2020-03-23 00:00:00 10 4 Oeste -- -- 0 -- -- 94
2020-03-22 23:00:00 10.5 4 Noroeste 5 Noroeste 0 -- -- 93
2020-03-22 22:00:00 10.8 5 Noroeste 12 Norte 0.2 -- -- 89
2020-03-22 21:00:00 10.5 4 Norte 12 Nordeste 0 -- -- 93
2020-03-22 20:00:00 10.6 0 Calma 9 Sur 0 -- -- 90
2020-03-22 19:00:00 11.9 6 Sudeste 30 Este 0.6 -- -- 87
2020-03-22 18:00:00 15.9 12 Oeste 22 Oeste 0 -- -- 60
2020-03-22 17:00:00 16.2 7 Sudoeste 17 Oeste 0 -- -- 58
2020-03-22 16:00:00 16.2 6 Sudoeste 12 Sudoeste 0 -- -- 57
2020-03-22 15:00:00 15.7 4 Sudoeste 15 Sur 0 -- -- 57
2020-03-22 14:00:00 14.3 4 Sur 11 Noroeste 0 -- -- 63
2020-03-22 13:00:00 13.4 4 Noroeste 9 Noroeste 0 -- -- 67
2020-03-22 12:00:00 12.7 2 Nordeste 10 Sudeste 0 -- -- 71
2020-03-22 11:00:00 11.9 2 Sudeste 13 Sur 0 -- -- 75
2020-03-22 10:00:00 10.1 5 Este 10 Sudeste 0 -- -- 84
2020-03-22 09:00:00 6.3 3 Norte 6 Norte 0 -- -- 97
2020-03-22 08:00:00 4.8 3 Oeste 5 Oeste 0 -- -- 97
2020-03-22 07:00:00 4.7 4 Oeste 5 Oeste 0 -- -- 96
2020-03-22 06:00:00 5.5 3 Noroeste 6 Noroeste 0 -- -- 95
2020-03-22 05:00:00 5.5 3 Noroeste 7 Norte 0 -- -- 96
2020-03-22 04:00:00 5.3 5 Norte 8 Norte 0 -- -- 96
2020-03-22 03:00:00 5.6 0 Calma 8 Este 0 -- -- 95
2020-03-22 02:00:00 6.5 0 Calma 4 Oeste 0 -- -- 94
2020-03-22 01:00:00 7.3 3 Oeste 5 Oeste 0 -- -- 94
2020-03-22 00:00:00 7.6 3 Oeste 5 Oeste 0 -- -- 92
2020-03-21 23:00:00 9 3 Sur 9 Sudeste 0 -- -- 87
2020-03-21 22:00:00 8.5 0 Calma 7 Este 0 -- -- 90
2020-03-21 21:00:00 8.6 4 Nordeste 11 Sudeste 0 -- -- 88
2020-03-21 20:00:00 10 3 Este 6 Este 0 -- -- 82
2020-03-21 19:00:00 13.1 3 Nordeste 10 Este 0 -- -- 66
2020-03-21 18:00:00 13.3 5 Este 14 Este 0 -- -- 69
2020-03-21 17:00:00 13 5 Este 14 Sudeste 0 -- -- 68
2020-03-21 16:00:00 12.1 7 Sudeste 14 Sudeste 0 -- -- 78
2020-03-21 15:00:00 10.3 4 Norte 7 Nordeste 0 -- -- 90
2020-03-21 14:00:00 9 2 Noroeste 24 Sudeste 0.6 -- -- 92
2020-03-21 13:00:00 9.8 12 Sudeste 22 Sudeste 0 -- -- 92
2020-03-21 12:00:00 8.8 10 Este 17 Este 1 -- -- 96
2020-03-21 11:00:00 8.3 5 Este 13 Este 1.4 -- -- 96
2020-03-21 10:00:00 8.4 5 Este 12 Sudeste 2.8 -- -- 96
2020-03-21 09:00:00 8.2 4 Este 10 Nordeste 1.6 -- -- 96
2020-03-21 08:00:00 8.4 5 Sudeste 9 Sudeste 1.2 -- -- 95
2020-03-21 07:00:00 8.6 3 Oeste 14 Oeste 2.8 -- -- 97
2020-03-21 06:00:00 8.8 9 Oeste 14 Oeste 3.6 -- -- 97
2020-03-21 05:00:00 9 0 Calma 10 Sudeste 2.4 -- -- 97
2020-03-21 04:00:00 9.2 0 Calma 4 Este 0.2 -- -- 97
2020-03-21 03:00:00 9.3 0 Calma 15 Oeste 2 -- -- 96
2020-03-21 02:00:00 9.6 9 Sudoeste 40 Sudeste 3.4 -- -- 92
2020-03-21 01:00:00 11.7 20 Sur 45 Sudeste 0 -- -- 84
2020-03-21 00:00:00 11.9 20 Sudeste 39 Este 0 -- -- 82
2020-03-20 23:00:00 11.4 13 Este 28 Sudeste 0.2 -- -- 89
2020-03-20 22:00:00 11.1 6 Este 15 Este 0 -- -- 94
2020-03-20 21:00:00 10.9 4 Noroeste 12 Este 1.6 -- -- 96
2020-03-20 20:00:00 10.9 6 Norte 18 Oeste 6 -- -- 96
2020-03-20 19:00:00 11.3 5 Noroeste 9 Norte 0.4 -- -- 95
2020-03-20 18:00:00 11.4 3 Noroeste 14 Sudoeste 2 -- -- 94
2020-03-20 17:00:00 11.5 4 Oeste 10 Sudoeste 1.6 -- -- 94
2020-03-20 16:00:00 11.3 3 Norte 6 Noroeste 2.8 -- -- 95
2020-03-20 15:00:00 11 3 Norte 12 Este 4 -- -- 93
2020-03-20 14:00:00 11.1 5 Noroeste 18 Este 0 -- -- 91
2020-03-20 13:00:00 10.7 3 Sudeste 12 Este 0 -- -- 92
2020-03-20 12:00:00 10.3 0 Calma 17 Sudeste 0.8 -- -- 93
2020-03-20 11:00:00 10 6 Este 18 Sudeste 4.2 -- -- 94
2020-03-20 10:00:00 10.2 8 Sur 30 Este 2.2 -- -- 92
2020-03-20 09:00:00 10.8 10 Sudeste 33 Sudeste 2.6 -- -- 88
2020-03-20 08:00:00 11.7 14 Sudeste 39 Sudeste 0 -- -- 80
2020-03-20 07:00:00 11.6 16 Sudeste 39 Sudeste 0 -- -- 79
2020-03-20 06:00:00 11.9 7 Sudeste 29 Sudeste 0 -- -- 77
2020-03-20 05:00:00 12.4 15 Sudeste 35 Sudeste 0 -- -- 75
2020-03-20 04:00:00 13 17 Sudeste 35 Este 0 -- -- 72
2020-03-20 03:00:00 13 13 Sudeste 33 Sudeste 0 -- -- 72
2020-03-20 02:00:00 13.2 17 Sudeste 32 Sudeste 0 -- -- 72
2020-03-20 01:00:00 13.2 10 Sudeste 25 Este 0 -- -- 71
2020-03-20 00:00:00 12.8 8 Sudeste 16 Este 0 -- -- 72
2020-03-19 23:00:00 10.9 0 Calma 4 Norte 0 -- -- 84
2020-03-19 22:00:00 12 3 Noroeste 4 Oeste 0 -- -- 76
2020-03-19 21:00:00 13 0 Calma 15 Sudeste 0 -- -- 72
2020-03-19 20:00:00 14 4 Este 14 Sudeste 0 -- -- 65
2020-03-19 19:00:00 14.9 6 Sudeste 21 Este 0 -- -- 63
2020-03-19 18:00:00 15.8 15 Sudeste 25 Este 0 -- -- 60
2020-03-19 17:00:00 16.5 13 Sudeste 26 Sudeste 0 -- -- 58
2020-03-19 16:00:00 17.7 13 Sudeste 24 Este 0 -- -- 56
2020-03-19 15:00:00 17.1 14 Sudeste 27 Este 0 -- -- 55
2020-03-19 14:00:00 17.5 7 Este 18 Sudeste 0 -- -- 58
2020-03-19 13:00:00 16.2 11 Sudeste 23 Sudeste 0 -- -- 57
2020-03-19 12:00:00 15.1 13 Sudeste 26 Este 0 -- -- 59
2020-03-19 11:00:00 13.6 4 Este 24 Sudeste 0 -- -- 66
2020-03-19 10:00:00 12 7 Sudeste 19 Sudeste 0 -- -- 66
2020-03-19 09:00:00 10.3 4 Este 12 Sudeste 0 -- -- 71
2020-03-19 08:00:00 10.5 4 Sur 16 Sur 0 -- -- 70
2020-03-19 07:00:00 11.2 9 Sudeste 19 Sudeste 0 -- -- 65
2020-03-19 06:00:00 12.8 14 Sudeste 24 Sudeste 0 -- -- 61
2020-03-19 05:00:00 13.3 17 Sudeste 24 Sudeste 0 -- -- 62
2020-03-19 04:00:00 13.4 12 Sudeste 22 Sur 0 -- -- 61
2020-03-19 03:00:00 14.3 13 Sudeste 31 Sudeste 0 -- -- 61
2020-03-19 02:00:00 14.8 14 Sudeste 24 Sudeste 0 -- -- 62
2020-03-19 01:00:00 14.4 5 Sudeste 23 Sudeste 0 -- -- 68
2020-03-19 00:00:00 14.2 9 Sudeste 30 Sudeste 0 -- -- 68
2020-03-18 23:00:00 14.6 14 Sudeste 25 Sudeste 0 -- -- 64
2020-03-18 22:00:00 14.8 5 Nordeste 16 Este 0 -- -- 64
2020-03-18 21:00:00 15 3 Norte 18 Sudeste 0 -- -- 64
2020-03-18 20:00:00 15.3 6 Nordeste 21 Sudeste 0 -- -- 64
2020-03-18 19:00:00 15.7 8 Sudeste 20 Sudeste 0 -- -- 62
2020-03-18 18:00:00 16.4 13 Este 32 Este 0 -- -- 62
2020-03-18 17:00:00 17.8 15 Este 29 Este 0 -- -- 56
2020-03-18 16:00:00 17.4 8 Sudeste 30 Este 0 -- -- 57
2020-03-18 15:00:00 17.8 13 Sudeste 32 Sudeste 0 -- -- 56
2020-03-18 14:00:00 18.4 18 Sudeste 34 Sudeste 0 -- -- 55
2020-03-18 13:00:00 19.1 14 Este 36 Sudeste 0 -- -- 53
2020-03-18 12:00:00 17.9 15 Sudeste 30 Sudeste 0 -- -- 57
2020-03-18 11:00:00 15.5 15 Sudeste 35 Sudeste 0 -- -- 59
2020-03-18 10:00:00 14.8 18 Sudeste 29 Sudeste 0 -- -- 66
2020-03-18 09:00:00 12.6 6 Sudeste 21 Sudeste 0 -- -- 72
2020-03-18 08:00:00 11.7 14 Sudeste 28 Este 0 -- -- 73
2020-03-18 07:00:00 11.6 10 Sudeste 30 Sudeste 0 -- -- 77
2020-03-18 06:00:00 11.7 18 Sudeste 32 Sudeste 0 -- -- 80
2020-03-18 05:00:00 11.2 5 Este 25 Este 0 -- -- 78
2020-03-18 04:00:00 11.3 7 Este 13 Norte 0 -- -- 77
2020-03-18 03:00:00 11.2 5 Nordeste 10 Nordeste 0 -- -- 76
2020-03-18 02:00:00 12.2 5 Nordeste 30 Nordeste 0 -- -- 72
2020-03-18 01:00:00 13.3 8 Nordeste 32 Este 0 -- -- 68
2020-03-18 00:00:00 13.4 6 Nordeste 15 Este 0 -- -- 70
2020-03-17 23:00:00 13.6 4 Este 19 Este 0 -- -- 72
2020-03-17 22:00:00 13.5 5 Nordeste 22 Este 0 -- -- 64
2020-03-17 21:00:00 13.7 4 Norte 10 Norte 0 -- -- 63
2020-03-17 20:00:00 13.7 5 Norte 10 Norte 0 -- -- 64
2020-03-17 19:00:00 16.7 8 Sudeste 35 Sudeste 0 -- -- 61
2020-03-17 18:00:00 17.6 14 Este 32 Sudeste 0 -- -- 54
2020-03-17 17:00:00 17.1 18 Sudeste 38 Sudeste 0 -- -- 52
2020-03-17 16:00:00 16.2 17 Sudeste 40 Sudeste 0 -- -- 52
2020-03-17 15:00:00 16.4 16 Sudeste 39 Sudeste 0 -- -- 55
2020-03-17 14:00:00 16.6 22 Sudeste 36 Sudeste 0 -- -- 59
2020-03-17 13:00:00 14.5 10 Este 21 Sudeste 0 -- -- 65
2020-03-17 12:00:00 12.7 8 Este 15 Este 0 -- -- 69
2020-03-17 11:00:00 10.5 8 Sudeste 12 Sudeste 0 -- -- 72
2020-03-17 10:00:00 9.2 5 Este 12 Nordeste 0 -- -- 75
2020-03-17 09:00:00 6.6 9 Norte 19 Nordeste 0 -- -- 79
2020-03-17 08:00:00 4.3 8 Norte 17 Norte 0 -- -- 89
2020-03-17 07:00:00 2.3 2 Norte 8 Norte 0 -- -- 95
2020-03-17 06:00:00 2.1 2 Norte 8 Este 0 -- -- 93
2020-03-17 05:00:00 3.8 6 Sudeste 13 Norte 0.2 -- -- 90
2020-03-17 04:00:00 4.3 6 Norte 15 Norte 0 -- -- 90
2020-03-17 03:00:00 3.5 4 Norte 8 Norte 0 -- -- 94
2020-03-17 02:00:00 4.3 0 Calma 9 Norte 0 -- -- 93
2020-03-17 01:00:00 4.9 5 Nordeste 15 Norte 0 -- -- 92
2020-03-17 00:00:00 5.5 8 Norte 18 Nordeste 0 -- -- 92
2020-03-16 23:00:00 5.7 8 Nordeste 18 Nordeste 1.8 -- -- 92
2020-03-16 22:00:00 6.3 10 Norte 23 Norte 0.6 -- -- 90
2020-03-16 21:00:00 6.1 9 Norte 30 Norte 1.2 -- -- 90
2020-03-16 20:00:00 6.7 16 Norte 31 Norte 1.4 -- -- 89
2020-03-16 19:00:00 6.6 5 Norte 10 Norte 2 -- -- 91
2020-03-16 18:00:00 7.4 4 Nordeste 38 Norte 1 -- -- 86
2020-03-16 17:00:00 7.5 17 Norte 35 Norte 0.6 -- -- 81
2020-03-16 16:00:00 7.9 18 Norte 43 Norte 0.4 -- -- 78
2020-03-16 15:00:00 9.2 24 Norte 48 Norte 0 -- -- 63
2020-03-16 14:00:00 9.2 29 Norte 55 Norte 0 -- -- 63
2020-03-16 13:00:00 9.3 22 Norte 55 Norte 0 -- -- 62
2020-03-16 12:00:00 9.8 27 Norte 47 Norte 0 -- -- 59
2020-03-16 11:00:00 8.8 21 Norte 44 Norte 0 -- -- 61
2020-03-16 10:00:00 7.8 19 Norte 41 Norte 0 -- -- 64
2020-03-16 09:00:00 7 18 Norte 33 Norte 0 -- -- 67
2020-03-16 08:00:00 5.9 16 Noroeste 30 Noroeste 0 -- -- 72
2020-03-16 07:00:00 5.6 9 Norte 28 Noroeste 0 -- -- 71
2020-03-16 06:00:00 5.4 11 Noroeste 23 Norte 0 -- -- 72
2020-03-16 05:00:00 5.5 18 Noroeste 42 Noroeste 0 -- -- 72
2020-03-16 04:00:00 6 21 Noroeste 33 Noroeste 0 -- -- 67
2020-03-16 03:00:00 6.1 23 Norte 38 Norte -- -- -- 66
2020-03-16 02:00:00 6.2 17 Noroeste 31 Noroeste 0 -- -- 65
2020-03-16 01:00:00 6.4 18 Noroeste 27 Noroeste 0 -- -- 65
2020-03-16 00:00:00 6.7 9 Noroeste 34 Noroeste 0 -- -- 68
2020-03-15 23:00:00 8.5 18 Noroeste 43 Noroeste 0 -- -- 66
2020-03-15 22:00:00 9.8 19 Noroeste 39 Noroeste 0 -- -- 63
2020-03-15 21:00:00 11.6 26 Noroeste 40 Noroeste 0 -- -- 65
2020-03-15 20:00:00 13 11 Oeste 30 Oeste 0 -- -- 58
2020-03-15 19:00:00 15.7 20 Oeste 37 Oeste 0 -- -- 50
2020-03-15 18:00:00 17.9 19 Oeste 40 Oeste 0 -- -- 44
2020-03-15 17:00:00 19.5 24 Oeste 41 Oeste 0 -- -- 53
2020-03-15 16:00:00 19.7 26 Oeste 42 Oeste 0 -- -- 56
2020-03-15 15:00:00 20.8 18 Sudoeste 37 Oeste 0 -- -- 54
2020-03-15 14:00:00 20.1 11 Sudoeste 23 Oeste 0 -- -- 56
2020-03-15 13:00:00 19.3 11 Sudoeste 23 Sur 0 -- -- 60
2020-03-15 12:00:00 17.7 9 Sur 15 Sudeste 0 -- -- 65
2020-03-15 11:00:00 15.4 9 Sur 15 Sur 0 -- -- 67
2020-03-15 10:00:00 13.9 4 Sudeste 6 Sudeste 0 -- -- 67
2020-03-15 09:00:00 10 0 Calma 5 Nordeste 0 -- -- 72
2020-03-15 08:00:00 6.4 2 Noroeste 4 Oeste 0 -- -- 88
2020-03-15 07:00:00 6.6 3 Noroeste 5 Norte 0 -- -- 86
2020-03-15 06:00:00 8.1 2 Oeste 6 Oeste 0 -- -- 78
2020-03-15 05:00:00 7.3 4 Noroeste 6 Oeste 0 -- -- 84
2020-03-15 04:00:00 8.6 0 Calma 6 Sudoeste 0 -- -- 76
2020-03-15 03:00:00 9.3 5 Noroeste 6 Oeste 0 -- -- 77
2020-03-15 02:00:00 9.7 4 Noroeste 10 Sur 0 -- -- 76
2020-03-15 01:00:00 11.4 9 Sur 13 Sur 0 -- -- 69
2020-03-15 00:00:00 13.8 3 Norte 8 Norte 0 -- -- 52
2020-03-14 23:00:00 12.9 2 Noroeste 13 Este 0 -- -- 66
2020-03-14 22:00:00 15.7 2 Oeste 12 Noroeste 0 -- -- 60
2020-03-14 21:00:00 16.6 6 Noroeste 11 Noroeste 0 -- -- 57
2020-03-14 20:00:00 18.3 5 Noroeste 7 Oeste 0 -- -- 55
2020-03-14 19:00:00 23.1 3 Sudoeste 8 Sudeste 0 -- -- 44
2020-03-14 18:00:00 24.2 4 Sur 10 Sudoeste 0 -- -- 36
2020-03-14 17:00:00 24.2 6 Sur 13 Sur 0 -- -- 36
2020-03-14 16:00:00 23.9 5 Sudeste 13 Este 0 -- -- 35
2020-03-14 15:00:00 23.1 4 Oeste 12 Sudeste 0 -- -- 42
2020-03-14 14:00:00 22.2 5 Nordeste 13 Sudeste 0 -- -- 48
2020-03-14 13:00:00 21.6 7 Sudeste 16 Este 0 -- -- 50
2020-03-14 12:00:00 20.5 7 Sudeste 19 Este 0 -- -- 50
2020-03-14 11:00:00 18.7 9 Nordeste 22 Nordeste 0 -- -- 53
2020-03-14 10:00:00 16.7 13 Nordeste 26 Norte 0 -- -- 57
2020-03-14 09:00:00 14.3 8 Nordeste 22 Nordeste 0 -- -- 63
2020-03-14 08:00:00 12.9 8 Norte 18 Norte 0 -- -- 66
2020-03-14 07:00:00 13.1 8 Norte 19 Nordeste 0 -- -- 65
2020-03-14 06:00:00 13.7 8 Norte 26 Norte 0 -- -- 63
2020-03-14 05:00:00 13.9 14 Norte 24 Norte 0 -- -- 63
2020-03-14 04:00:00 14 11 Norte 27 Nordeste 0 -- -- 63
2020-03-14 03:00:00 13.9 11 Norte 28 Norte 0 -- -- 67
2020-03-14 02:00:00 13.7 12 Norte 26 Nordeste 0 -- -- 70
2020-03-14 01:00:00 12.6 0 Calma 14 Norte 0 -- -- 78
2020-03-14 00:00:00 14.9 8 Norte 16 Norte 0 -- -- 70
2020-03-13 23:00:00 16.1 13 Norte 22 Norte 0 -- -- 66
2020-03-13 22:00:00 16.3 12 Norte 18 Norte 0 -- -- 68
2020-03-13 21:00:00 16.5 8 Norte 15 Norte 0 -- -- 69
2020-03-13 20:00:00 17.6 6 Norte 14 Norte 0 -- -- 66
2020-03-13 19:00:00 19.9 6 Nordeste 15 Noroeste 0 -- -- 59
2020-03-13 18:00:00 20.9 10 Noroeste 18 Noroeste 0 -- -- 57
2020-03-13 17:00:00 21.5 12 Noroeste 20 Oeste 0 -- -- 58
2020-03-13 16:00:00 22.7 4 Oeste 17 Este 0 -- -- 52
2020-03-13 15:00:00 22.5 7 Este 16 Nordeste 0 -- -- 52
2020-03-13 14:00:00 21.1 9 Nordeste 17 Este 0 -- -- 56
2020-03-13 13:00:00 19.8 6 Nordeste 16 Este 0 -- -- 58
2020-03-13 12:00:00 18.2 7 Nordeste 14 Nordeste 0 -- -- 62
2020-03-13 11:00:00 16.1 8 Norte 19 Norte 0 -- -- 69
2020-03-13 10:00:00 14.9 8 Nordeste 21 Nordeste 0 -- -- 74
2020-03-13 09:00:00 12.6 9 Norte 18 Nordeste 0 -- -- 83
2020-03-13 08:00:00 9.9 2 Nordeste 9 Nordeste 0 -- -- 92
2020-03-13 07:00:00 9 0 Calma 5 Oeste 0 -- -- 93
2020-03-13 06:00:00 9.4 2 Noroeste 7 Oeste 0 -- -- 92
2020-03-13 05:00:00 10.1 4 Oeste 6 Oeste 0 -- -- 92
2020-03-13 04:00:00 10.3 4 Noroeste 5 Oeste 0 -- -- 92
2020-03-13 03:00:00 10.7 3 Noroeste 5 Oeste 0 -- -- 92
2020-03-13 02:00:00 11.5 2 Noroeste 6 Oeste 0 -- -- 88
2020-03-13 01:00:00 12.6 2 Oeste 4 Norte 0 -- -- 85
2020-03-13 00:00:00 13.9 3 Noroeste 9 Oeste 0 -- -- 81
2020-03-12 23:00:00 13.9 3 Norte 6 Sur 0 -- -- 82
2020-03-12 22:00:00 16 5 Sudeste 10 Sur 0 -- -- 73
2020-03-12 21:00:00 16.6 4 Noroeste 7 Noroeste 0 -- -- 74
2020-03-12 20:00:00 18.9 5 Noroeste 7 Oeste 0 -- -- 66
2020-03-12 19:00:00 21.3 4 Noroeste 10 Noroeste 0 -- -- 59
2020-03-12 18:00:00 22.9 6 Noroeste 15 Oeste 0 -- -- 51
2020-03-12 17:00:00 24.8 6 Oeste 13 Oeste 0 -- -- 42
2020-03-12 16:00:00 25.2 4 Sudoeste 9 Sudoeste 0 -- -- 42
2020-03-12 15:00:00 24.3 4 Sudeste 7 Sudeste 0 -- -- 46
2020-03-12 14:00:00 24 4 Sur 14 Sur 0 -- -- 47
2020-03-12 13:00:00 23 7 Sur 20 Sudeste 0 -- -- 48
2020-03-12 12:00:00 21.3 6 Sudeste 11 Sudeste 0 -- -- 58
2020-03-12 11:00:00 19.4 7 Este 12 Sudeste 0 -- -- 61
2020-03-12 10:00:00 16.8 3 Este 8 Este 0 -- -- 70
2020-03-12 09:00:00 11.7 2 Noroeste 5 Oeste 0 -- -- 89
2020-03-12 08:00:00 10.1 3 Noroeste 5 Oeste 0 -- -- 92
2020-03-12 07:00:00 9.7 2 Norte 5 Oeste 0 -- -- 93
2020-03-12 06:00:00 10.2 4 Norte 6 Noroeste 0 -- -- 91
2020-03-12 05:00:00 10.9 4 Noroeste 6 Oeste 0 -- -- 91
2020-03-12 04:00:00 12 2 Noroeste 8 Oeste 0 -- -- 88
2020-03-12 03:00:00 13 5 Noroeste 7 Oeste 0 -- -- 88
2020-03-12 02:00:00 13.1 4 Noroeste 6 Noroeste 0 -- -- 89
2020-03-12 01:00:00 13.8 3 Noroeste 5 Oeste 0 -- -- 86
2020-03-12 00:00:00 15.3 4 Oeste 8 Noroeste 0 -- -- 80
2020-03-11 23:00:00 16.9 2 Oeste 9 Norte 0 -- -- 74
2020-03-11 22:00:00 16.3 4 Norte 9 Norte 0 -- -- 77
2020-03-11 21:00:00 17 4 Noroeste 6 Oeste 0 -- -- 76
2020-03-11 20:00:00 18.2 3 Noroeste 5 Oeste 0 -- -- 74
2020-03-11 19:00:00 20.6 0 Calma 4 Norte 0 -- -- 65
2020-03-11 18:00:00 22.9 2 Norte 4 Norte 0 -- -- 58
2020-03-11 17:00:00 24.2 0 Calma 8 Oeste 0 -- -- 46
2020-03-11 16:00:00 24.7 5 Sur 11 Sur 0 -- -- 45
2020-03-11 15:00:00 24.9 6 Sur 13 Sudoeste 0 -- -- 47
2020-03-11 14:00:00 23.8 4 Sudeste 9 Sur 0 -- -- 50
2020-03-11 13:00:00 22 4 Sudeste 8 Sur 0 -- -- 50
2020-03-11 12:00:00 19.7 4 Sudeste 9 Sudeste 0 -- -- 59
2020-03-11 11:00:00 17.3 2 Sur 6 Sur 0 -- -- 65
2020-03-11 10:00:00 15.1 3 Este 6 Este 0 -- -- 75
2020-03-11 09:00:00 10 0 Calma 3 Oeste 0 -- -- 92
2020-03-11 08:00:00 7.4 2 Noroeste 4 Oeste 0 -- -- 93
2020-03-11 07:00:00 8.4 3 Noroeste 6 Noroeste 0 -- -- 92
2020-03-11 06:00:00 8 3 Noroeste 5 Oeste 0 -- -- 92
2020-03-11 05:00:00 8.6 3 Noroeste 5 Oeste 0 -- -- 90
2020-03-11 04:00:00 9.6 3 Noroeste 6 Oeste 0 -- -- 87
2020-03-11 03:00:00 10.7 5 Oeste 6 Oeste 0 -- -- 84
2020-03-11 02:00:00 10.9 0 Calma 5 Oeste 0 -- -- 84
2020-03-11 01:00:00 12.7 4 Noroeste 7 Noroeste 0 -- -- 77
2020-03-11 00:00:00 12.3 5 Noroeste 7 Oeste 0 -- -- 80
2020-03-10 23:00:00 13.3 5 Noroeste 8 Oeste 0 -- -- 76
2020-03-10 22:00:00 13.9 6 Oeste 7 Oeste 0 -- -- 76
2020-03-10 21:00:00 15.2 5 Oeste 6 Oeste 0 -- -- 72
2020-03-10 20:00:00 17.7 5 Oeste 5 Oeste 0 -- -- 63
2020-03-10 19:00:00 22.5 3 Oeste 9 Sudoeste 0 -- -- 48
2020-03-10 18:00:00 23.8 4 Oeste 15 Oeste 0 -- -- 41
2020-03-10 17:00:00 23.9 6 Sudoeste 12 Sudoeste 0 -- -- 41
2020-03-10 16:00:00 23.3 4 Oeste 12 Sudoeste 0 -- -- 40
2020-03-10 15:00:00 22.1 5 Sudoeste 14 Oeste 0 -- -- 42
2020-03-10 14:00:00 21 6 Sudoeste 13 Oeste 0 -- -- 43
2020-03-10 13:00:00 19.1 3 Sur 11 Sudeste 0 -- -- 49
2020-03-10 12:00:00 16.4 6 Sudeste 10 Sudeste 0 -- -- 55
2020-03-10 11:00:00 13.3 6 Sudeste 9 Sudeste 0 -- -- 71
2020-03-10 10:00:00 10.3 7 Sudeste 12 Sudeste 0 -- -- 78
2020-03-10 09:00:00 9.4 9 Oeste 13 Oeste 0 -- -- 76
2020-03-10 08:00:00 6.4 4 Oeste 8 Oeste 0 -- -- 85
2020-03-10 07:00:00 7.2 5 Sudeste 9 Sudeste 0 -- -- 79
2020-03-10 06:00:00 6.5 0 Calma 4 Este 0 -- -- 83
2020-03-10 05:00:00 7.5 3 Noroeste 9 Oeste 0 -- -- 77
2020-03-10 04:00:00 8.7 4 Oeste 8 Oeste 0 -- -- 72
2020-03-10 03:00:00 8.3 3 Noroeste 9 Oeste 0 -- -- 76
2020-03-10 02:00:00 8.1 3 Noroeste 7 Norte 0 -- -- 75
2020-03-10 01:00:00 10.6 0 Calma 14 Norte 0 -- -- 63
2020-03-10 00:00:00 13.5 8 Norte 19 Norte 0 -- -- 49
2020-03-09 23:00:00 12 10 Noroeste 17 Noroeste 0 -- -- 57
2020-03-09 22:00:00 12.2 3 Norte 9 Noroeste 0 -- -- 59
2020-03-09 21:00:00 13.2 4 Norte 11 Oeste 0 -- -- 55
2020-03-09 20:00:00 14.7 6 Noroeste 16 Noroeste 0 -- -- 54
2020-03-09 19:00:00 17 12 Noroeste 24 Norte 0 -- -- 45
2020-03-09 18:00:00 20.5 4 Sudoeste 17 Sudoeste 0 -- -- 38
2020-03-09 17:00:00 20.5 4 Sur 11 Sur 0 -- -- 39
2020-03-09 16:00:00 20.1 4 Este 9 Noroeste 0 -- -- 41
2020-03-09 15:00:00 18.9 4 Sudoeste 12 Norte 0 -- -- 41
2020-03-09 14:00:00 17.5 6 Norte 11 Norte 0 -- -- 48
2020-03-09 13:00:00 16.3 5 Nordeste 12 Nordeste 0 -- -- 48
2020-03-09 12:00:00 14.2 5 Norte 14 Norte 0 -- -- 54
2020-03-09 11:00:00 12.8 4 Nordeste 15 Nordeste 0 -- -- 59
2020-03-09 10:00:00 10.4 4 Nordeste 11 Norte 0 -- -- 69
2020-03-09 09:00:00 7.9 5 Nordeste 11 Nordeste 0 -- -- 80
2020-03-09 08:00:00 5.2 5 Noroeste 7 Oeste 0 -- -- 90
2020-03-09 07:00:00 4.7 3 Noroeste 6 Oeste 0 -- -- 92
2020-03-09 06:00:00 5.5 5 Oeste 9 Oeste 0 -- -- 90
2020-03-09 05:00:00 7.4 3 Sudeste 8 Sur 0 -- -- 85
2020-03-09 04:00:00 8.3 3 Sur 19 Norte 0 -- -- 82
2020-03-09 03:00:00 9.8 7 Noroeste 22 Noroeste 0 -- -- 76
2020-03-09 02:00:00 10.2 5 Norte 15 Noroeste 0 -- -- 76
2020-03-09 01:00:00 10.5 7 Noroeste 16 Norte 0 -- -- 77
2020-03-09 00:00:00 9.5 5 Noroeste 12 Noroeste 0 -- -- 84
2020-03-08 23:00:00 10.7 4 Oeste 17 Noroeste 0 -- -- 82
2020-03-08 22:00:00 10.9 5 Noroeste 12 Noroeste 0 -- -- 82
2020-03-08 21:00:00 11.4 6 Noroeste 9 Noroeste 0 -- -- 81
2020-03-08 20:00:00 13.8 0 Calma 22 Noroeste 0 -- -- 71
2020-03-08 19:00:00 15.4 9 Noroeste 20 Noroeste 0 -- -- 64
2020-03-08 18:00:00 16.4 8 Noroeste 18 Oeste 0 -- -- 60
2020-03-08 17:00:00 15 11 Oeste 18 Oeste 0 -- -- 65
2020-03-08 16:00:00 14.2 11 Oeste 19 Oeste 0 -- -- 67
2020-03-08 15:00:00 14.8 9 Oeste 21 Oeste 0 -- -- 64
2020-03-08 14:00:00 14.9 8 Oeste 14 Oeste 0 -- -- 65
2020-03-08 13:00:00 14.9 8 Oeste 16 Sur 0 -- -- 64
2020-03-08 12:00:00 13.3 6 Sur 13 Sur 0 -- -- 70
2020-03-08 11:00:00 9.5 4 Sudeste 7 Sur 0 -- -- 82
2020-03-08 10:00:00 8.2 3 Sudeste 7 Sudeste 0 -- -- 83
2020-03-08 09:00:00 4.8 5 Sudeste 6 Sudeste 0 -- -- 93
2020-03-08 08:00:00 3 2 Noroeste 4 Norte 0 -- -- 94
2020-03-08 07:00:00 3.7 2 Este 3 Este 0 -- -- 92
2020-03-08 06:00:00 4.8 0 Calma 7 Norte 0 -- -- 92
2020-03-08 05:00:00 4.2 4 Nordeste 8 Nordeste 0 -- -- 95
2020-03-08 04:00:00 4.4 3 Norte 5 Nordeste 0 -- -- 94
2020-03-08 03:00:00 5 0 Calma 6 Oeste 0 -- -- 89
2020-03-08 02:00:00 6.1 5 Oeste 8 Oeste 0 -- -- 90
2020-03-08 01:00:00 6.1 4 Noroeste 6 Oeste 0 -- -- 89
2020-03-08 00:00:00 7.6 4 Oeste 6 Oeste 0 -- -- 84
2020-03-07 23:00:00 8.8 0 Calma 12 Oeste 0 -- -- 79
2020-03-07 22:00:00 9.8 9 Oeste 11 Oeste 0 -- -- 77
2020-03-07 21:00:00 11 4 Noroeste 7 Oeste 0 -- -- 73
2020-03-07 20:00:00 13.1 4 Oeste 11 Oeste 0 -- -- 66
2020-03-07 19:00:00 16.9 7 Sudoeste 15 Sudoeste 0 -- -- 51
2020-03-07 18:00:00 18.5 9 Oeste 18 Oeste 0 -- -- 47
2020-03-07 17:00:00 18.7 10 Sudoeste 21 Oeste 0 -- -- 46
2020-03-07 16:00:00 18.8 6 Sudoeste 21 Sur 0 -- -- 44
2020-03-07 15:00:00 18.3 4 Sudeste 12 Nordeste 0 -- -- 43
2020-03-07 14:00:00 17.6 5 Este 17 Este 0 -- -- 47
2020-03-07 13:00:00 16 9 Nordeste 24 Norte 0 -- -- 50
2020-03-07 12:00:00 14.2 9 Norte 20 Nordeste 0 -- -- 55
2020-03-07 11:00:00 11.6 6 Norte 21 Norte 0 -- -- 65
2020-03-07 10:00:00 9.5 12 Norte 21 Nordeste 0 -- -- 71
2020-03-07 09:00:00 6.5 6 Norte 14 Nordeste 0 -- -- 79
2020-03-07 08:00:00 5.8 4 Norte 18 Norte 0 -- -- 77
2020-03-07 07:00:00 5.8 9 Norte 20 Norte 0 -- -- 77
2020-03-07 06:00:00 4.8 5 Norte 9 Norte 0 -- -- 82
2020-03-07 05:00:00 4.7 2 Noroeste 8 Este 0 -- -- 79
2020-03-07 04:00:00 4.3 3 Norte 6 Norte 0 -- -- 83
2020-03-07 03:00:00 4.5 0 Calma 6 Sudeste 0 -- -- 80
2020-03-07 02:00:00 7.3 2 Sur 30 Norte 0 -- -- 64
2020-03-07 01:00:00 9 16 Norte 31 Norte 0 -- -- 58
2020-03-07 00:00:00 9.3 9 Norte 24 Norte 0 -- -- 54
2020-03-06 23:00:00 8.8 9 Norte 16 Norte 0 -- -- 58
2020-03-06 22:00:00 9.3 6 Noroeste 20 Norte 0 -- -- 57
2020-03-06 21:00:00 10 4 Norte 32 Noroeste 0 -- -- 56
2020-03-06 20:00:00 11.8 19 Norte 39 Norte 0 -- -- 49
2020-03-06 19:00:00 12.9 19 Norte 35 Noroeste 0 -- -- 45
2020-03-06 18:00:00 14.4 18 Noroeste 48 Noroeste 0 -- -- 44
2020-03-06 17:00:00 14.8 24 Norte 45 Noroeste 0 -- -- 42
2020-03-06 16:00:00 14.6 25 Noroeste 43 Noroeste 0 -- -- 45
2020-03-06 15:00:00 14.6 21 Noroeste 41 Norte 0 -- -- 49
2020-03-06 14:00:00 13.9 23 Norte 40 Noroeste 0 -- -- 50
2020-03-06 13:00:00 13.2 20 Noroeste 45 Norte 0 -- -- 49
2020-03-06 12:00:00 11.7 24 Noroeste 41 Norte 0 -- -- 56
2020-03-06 11:00:00 10.6 10 Noroeste 30 Noroeste 0 -- -- 57
2020-03-06 10:00:00 10.3 13 Oeste 24 Noroeste 0 -- -- 61
2020-03-06 09:00:00 9.3 9 Oeste 25 Noroeste 0 -- -- 61
2020-03-06 08:00:00 8.3 15 Noroeste 35 Noroeste 0 -- -- 65
2020-03-06 07:00:00 8.4 10 Noroeste 25 Noroeste 0 -- -- 84
2020-03-06 06:00:00 7.9 3 Noroeste 14 Oeste 0 -- -- 92
2020-03-06 05:00:00 8.3 5 Norte 16 Oeste 0 -- -- 90
2020-03-06 04:00:00 7.8 2 Sudoeste 8 Sur 0 -- -- 85
2020-03-06 03:00:00 8.1 3 Sudoeste 10 Oeste 0 -- -- 82
2020-03-06 02:00:00 7 4 Oeste 9 Oeste 0 -- -- 86
2020-03-06 01:00:00 7.1 6 Oeste 11 Oeste 0 -- -- 82
2020-03-06 00:00:00 9.2 6 Oeste 15 Sudoeste 0 -- -- 71
2020-03-05 23:00:00 9 7 Noroeste 23 Noroeste 0 -- -- 70
2020-03-05 22:00:00 10.1 12 Noroeste 23 Noroeste 0 -- -- 66
2020-03-05 21:00:00 10.8 14 Noroeste 31 Noroeste 0 -- -- 64
2020-03-05 20:00:00 12 12 Noroeste 28 Noroeste 0 -- -- 62
2020-03-05 19:00:00 13.4 16 Noroeste 39 Sudoeste 0 -- -- 57
2020-03-05 18:00:00 14.9 18 Noroeste 44 Noroeste 0 -- -- 51
2020-03-05 17:00:00 15.7 18 Noroeste 42 Oeste 0 -- -- 51
2020-03-05 16:00:00 16.2 22 Oeste 37 Oeste 0 -- -- 51
2020-03-05 15:00:00 16.4 18 Noroeste 33 Oeste 0 -- -- 52
2020-03-05 14:00:00 15.8 12 Oeste 27 Oeste 0 -- -- 52
2020-03-05 13:00:00 14.5 10 Oeste 28 Oeste 0 -- -- 56
2020-03-05 12:00:00 13.9 13 Oeste 28 Oeste 0 -- -- 69
2020-03-05 11:00:00 12.5 15 Oeste 28 Oeste 0 -- -- 81
2020-03-05 10:00:00 11.8 13 Oeste 36 Sudoeste 0.2 -- -- 89
2020-03-05 09:00:00 11.6 12 Oeste 29 Sudoeste 1.8 -- -- 97
2020-03-05 08:00:00 11.8 10 Sudoeste 25 Sudoeste 0 -- -- 94
2020-03-05 07:00:00 12.4 10 Sudoeste 24 Sur 0 -- -- 90
2020-03-05 06:00:00 12.7 10 Sudoeste 22 Sudoeste 0 -- -- 93
2020-03-05 05:00:00 12.8 10 Sudoeste 21 Sudoeste 0 -- -- 92
2020-03-05 04:00:00 12.9 7 Sudoeste 15 Sudoeste 0 -- -- 92
2020-03-05 03:00:00 13 6 Oeste 11 Oeste 0 -- -- 92
2020-03-05 02:00:00 13.1 4 Sur 10 Oeste 0 -- -- 93
2020-03-05 01:00:00 13.3 6 Oeste 12 Oeste 0 -- -- 93
2020-03-05 00:00:00 13.2 5 Oeste 10 Oeste 0 -- -- 93